createdAt,value
2023-04-01T00:01:01.890Z,10.57
2023-04-01T00:03:29.520Z,9.13
2023-04-01T00:05:58.238Z,10.02
2023-04-01T00:08:25.544Z,9.57
2023-04-01T00:10:54.278Z,9.73
2023-04-01T00:13:21.672Z,8.75
2023-04-01T00:15:48.673Z,8.75
2023-04-01T00:18:15.240Z,9.60
2023-04-01T00:20:49.869Z,8.00
2023-04-01T00:23:16.908Z,7.80
2023-04-01T00:25:44.798Z,6.63
2023-04-01T00:28:11.298Z,6.50
2023-04-01T00:30:38.613Z,6.47
2023-04-01T00:33:05.409Z,5.63
2023-04-01T00:35:32.079Z,5.95
2023-04-01T00:37:59.414Z,6.47
2023-04-01T00:40:33.358Z,7.32
2023-04-01T00:43:00.622Z,7.90
2023-04-01T00:45:32.509Z,7.97
2023-04-01T00:48:03.895Z,9.00
2023-04-01T00:50:32.438Z,8.52
2023-04-01T00:53:01.285Z,8.00
2023-04-01T00:55:30.256Z,7.88
2023-04-01T00:57:59.522Z,8.98
2023-04-01T01:00:26.327Z,8.23
2023-04-01T01:02:53.270Z,8.48
2023-04-01T01:05:30.752Z,8.02
2023-04-01T01:08:12.366Z,8.25
2023-04-01T01:10:39.918Z,7.70
2023-04-01T01:13:22.585Z,7.38
2023-04-01T01:16:10.936Z,6.97
2023-04-01T01:18:53.020Z,8.00
2023-04-01T01:21:27.809Z,7.50
2023-04-01T01:24:15.988Z,7.63
2023-04-01T01:27:05.677Z,8.45
2023-04-01T01:30:03.449Z,6.93
2023-04-01T01:32:38.763Z,6.30
2023-04-01T01:35:30.682Z,6.57
2023-04-01T01:38:12.084Z,6.07
2023-04-01T01:40:44.017Z,5.30
2023-04-01T01:43:14.932Z,5.20
2023-04-01T01:45:47.132Z,4.57
2023-04-01T01:48:14.028Z,4.70
2023-04-01T01:50:42.069Z,4.28
2023-04-01T01:53:12.745Z,4.65
2023-04-01T01:55:41.990Z,4.65
2023-04-01T01:58:12.805Z,4.85
2023-04-01T02:00:43.950Z,4.80
2023-04-01T02:03:13.353Z,4.95
2023-04-01T02:05:40.659Z,4.50
2023-04-01T02:08:16.494Z,4.43
2023-04-01T02:10:50.408Z,4.50
2023-04-01T02:13:27.556Z,4.72
2023-04-01T02:15:58.154Z,4.70
2023-04-01T02:18:24.685Z,4.10
2023-04-01T02:20:52.481Z,4.15
2023-04-01T02:23:19.530Z,3.97
2023-04-01T02:25:47.744Z,4.20
2023-04-01T02:28:15.394Z,4.10
2023-04-01T02:30:44.095Z,4.20
2023-04-01T02:33:11.113Z,3.92
2023-04-01T02:35:37.973Z,4.03
2023-04-01T02:38:05.622Z,4.28
2023-04-01T02:40:43.490Z,4.57
2023-04-01T02:43:10.447Z,4.38
2023-04-01T02:45:36.980Z,4.22
2023-04-01T02:48:03.820Z,4.35
2023-04-01T02:50:30.381Z,4.85
2023-04-01T02:52:57.148Z,5.07
2023-04-01T02:55:23.683Z,4.25
2023-04-01T02:57:50.253Z,4.50
2023-04-01T03:00:17.499Z,4.53
2023-04-01T03:02:44.130Z,4.45
2023-04-01T03:05:10.709Z,4.68
2023-04-01T03:07:37.303Z,4.38
2023-04-01T03:10:04.053Z,4.53
2023-04-01T03:12:30.634Z,4.65
2023-04-01T03:14:58.133Z,5.10
2023-04-01T03:17:38.542Z,4.78
2023-04-01T03:20:05.869Z,6.25
2023-04-01T03:22:32.635Z,5.53
2023-04-01T03:24:59.230Z,6.00
2023-04-01T03:27:25.758Z,6.13
2023-04-01T03:29:52.566Z,6.13
2023-04-01T03:32:19.618Z,5.80
2023-04-01T03:34:46.278Z,6.13
2023-04-01T03:37:13.987Z,6.72
2023-04-01T03:39:42.115Z,7.18
2023-04-01T03:42:10.222Z,6.97
2023-04-01T03:44:36.736Z,7.50
2023-04-01T03:47:03.311Z,7.78
2023-04-01T03:49:30.112Z,6.72
2023-04-01T03:51:56.626Z,5.70
2023-04-01T03:54:23.461Z,5.28
2023-04-01T03:56:50.132Z,5.15
2023-04-01T03:59:16.637Z,5.32
2023-04-01T04:01:43.330Z,6.35
2023-04-01T04:04:12.458Z,6.45
2023-04-01T04:06:39.471Z,6.97
2023-04-01T04:09:06.224Z,7.25
2023-04-01T04:11:33.421Z,6.75
2023-04-01T04:14:00.715Z,6.03
2023-04-01T04:16:27.335Z,6.88
2023-04-01T04:18:58.093Z,5.63
2023-04-01T04:21:24.636Z,5.75
2023-04-01T04:23:51.465Z,4.88
2023-04-01T04:26:19.371Z,5.40
2023-04-01T04:28:55.272Z,4.32
2023-04-01T04:31:24.117Z,5.22
2023-04-01T04:33:53.067Z,5.15
2023-04-01T04:36:20.441Z,4.93
2023-04-01T04:38:49.065Z,5.60
2023-04-01T04:41:17.728Z,6.35
2023-04-01T04:43:56.104Z,6.20
2023-04-01T04:46:24.595Z,5.55
2023-04-01T04:48:57.588Z,5.25
2023-04-01T04:51:24.612Z,5.45
2023-04-01T04:53:52.982Z,5.72
2023-04-01T04:56:27.144Z,5.30
2023-04-01T04:59:06.360Z,5.93
2023-04-01T05:01:42.165Z,5.10
2023-04-01T05:04:08.751Z,4.82
2023-04-01T05:06:35.356Z,5.50
2023-04-01T05:09:02.453Z,5.78
2023-04-01T05:11:28.931Z,5.28
2023-04-01T05:13:57.026Z,4.85
2023-04-01T05:16:23.616Z,5.00
2023-04-01T05:18:50.220Z,5.38
2023-04-01T05:21:16.819Z,4.70
2023-04-01T05:23:43.496Z,5.30
2023-04-01T05:26:15.559Z,5.30
2023-04-01T05:28:42.688Z,5.30
2023-04-01T05:31:09.651Z,4.80
2023-04-01T05:33:39.637Z,4.40
2023-04-01T05:36:14.354Z,5.43
2023-04-01T05:38:41.931Z,5.00
2023-04-01T05:41:10.696Z,4.32
2023-04-01T05:43:42.452Z,4.80
2023-04-01T05:46:27.569Z,4.53
2023-04-01T05:48:59.553Z,4.30
2023-04-01T05:51:26.963Z,4.93
2023-04-01T05:53:53.398Z,4.20
2023-04-01T05:56:19.926Z,4.50
2023-04-01T05:58:52.713Z,3.78
2023-04-01T06:01:21.274Z,4.38
2023-04-01T06:03:48.641Z,4.95
2023-04-01T06:06:26.411Z,4.82
2023-04-01T06:08:58.037Z,5.28
2023-04-01T06:11:49.612Z,4.55
2023-04-01T06:14:16.350Z,4.80
2023-04-01T06:16:52.865Z,4.80
2023-04-01T06:19:41.261Z,5.50
2023-04-01T06:22:29.667Z,4.95
2023-04-01T06:25:22.361Z,4.78
2023-04-01T06:27:54.880Z,4.85
2023-04-01T06:30:33.045Z,4.70
2023-04-01T06:33:06.991Z,4.75
2023-04-01T06:36:12.563Z,4.22
2023-04-01T06:38:52.417Z,4.82
2023-04-01T06:41:40.841Z,4.47
2023-04-01T06:44:24.483Z,4.90
2023-04-01T06:47:27.768Z,4.80
2023-04-01T06:50:25.286Z,4.57
2023-04-01T06:53:16.206Z,4.60
2023-04-01T06:56:06.498Z,4.93
2023-04-01T06:58:45.119Z,4.35
2023-04-01T07:01:17.846Z,5.00
2023-04-01T07:03:50.780Z,5.25
2023-04-01T07:06:32.469Z,5.00
2023-04-01T07:09:06.243Z,8.07
2023-04-01T07:11:57.636Z,5.72
2023-04-01T07:14:44.591Z,5.30
2023-04-01T07:17:33.738Z,8.88
2023-04-01T07:20:18.690Z,7.00
2023-04-01T07:22:49.101Z,5.18
2023-04-01T07:25:47.484Z,5.57
2023-04-01T07:28:33.507Z,6.80
2023-04-01T07:31:26.112Z,6.88
2023-04-01T07:33:55.621Z,5.32
2023-04-01T07:36:47.397Z,5.72
2023-04-01T07:39:41.368Z,4.97
2023-04-01T07:42:46.647Z,5.82
2023-04-01T07:45:42.570Z,5.43
2023-04-01T07:48:31.473Z,6.20
2023-04-01T07:51:18.285Z,5.50
2023-04-01T07:54:07.183Z,5.50
2023-04-01T07:56:58.436Z,5.85
2023-04-01T07:59:40.242Z,4.88
2023-04-01T08:02:55.185Z,5.97
2023-04-01T08:05:53.974Z,5.47
2023-04-01T08:08:39.318Z,5.53
2023-04-01T08:11:22.492Z,5.00
2023-04-01T08:14:22.438Z,4.43
2023-04-01T08:17:22.669Z,4.22
2023-04-01T08:20:31.578Z,5.45
2023-04-01T08:23:16.322Z,5.20
2023-04-01T08:26:03.118Z,4.68
2023-04-01T08:28:51.237Z,4.55
2023-04-01T08:31:38.702Z,4.93
2023-04-01T08:34:15.537Z,4.22
2023-04-01T08:36:49.414Z,4.43
2023-04-01T08:39:24.594Z,4.65
2023-04-01T08:42:32.620Z,4.50
2023-04-01T08:45:22.588Z,4.47
2023-04-01T08:48:33.869Z,4.05
2023-04-01T08:51:23.667Z,5.95
2023-04-01T08:54:05.229Z,4.28
2023-04-01T08:56:42.318Z,4.80
2023-04-01T09:00:06.334Z,6.50
2023-04-01T09:03:16.162Z,5.68
2023-04-01T09:06:04.614Z,5.25
2023-04-01T09:08:46.441Z,5.38
2023-04-01T09:11:31.885Z,5.25
2023-04-01T09:14:39.002Z,4.43
2023-04-01T09:18:13.735Z,4.65
2023-04-01T09:20:57.054Z,6.00
2023-04-01T09:23:34.330Z,6.35
2023-04-01T09:26:33.004Z,5.72
2023-04-01T09:29:24.651Z,5.20
2023-04-01T09:32:25.718Z,4.43
2023-04-01T09:35:39.991Z,3.35
2023-04-01T09:38:09.787Z,4.45
2023-04-01T09:41:02.044Z,3.90
2023-04-01T09:44:26.163Z,5.50
2023-04-01T09:47:06.495Z,3.65
2023-04-01T09:49:44.925Z,3.25
2023-04-01T09:52:29.341Z,3.97
2023-04-01T09:55:43.211Z,3.15
2023-04-01T09:58:43.806Z,3.80
2023-04-01T10:01:22.522Z,4.13
2023-04-01T10:04:04.491Z,4.10
2023-04-01T10:06:57.700Z,3.65
2023-04-01T10:10:03.240Z,4.75
2023-04-01T10:12:58.842Z,3.70
2023-04-01T10:15:31.479Z,3.90
2023-04-01T10:18:13.822Z,3.55
2023-04-01T10:24:01.096Z,3.28
2023-04-01T10:26:32.351Z,4.22
2023-04-01T10:29:38.530Z,3.65
2023-04-01T10:32:56.900Z,3.83
2023-04-01T10:35:51.809Z,4.90
2023-04-01T10:38:56.680Z,5.03
2023-04-01T10:41:32.080Z,3.88
2023-04-01T10:45:01.781Z,3.72
2023-04-01T10:47:54.274Z,4.80
2023-04-01T10:50:27.101Z,3.58
2023-04-01T10:53:11.879Z,3.75
2023-04-01T10:56:30.228Z,5.70
2023-04-01T10:59:31.607Z,4.80
2023-04-01T11:02:45.776Z,3.78
2023-04-01T11:06:06.366Z,3.90
2023-04-01T11:08:32.860Z,3.90
2023-04-01T11:11:18.261Z,3.55
2023-04-01T11:14:28.115Z,3.78
2023-04-01T11:17:24.159Z,3.88
2023-04-01T11:20:10.416Z,3.03
2023-04-01T11:22:52.056Z,3.08
2023-04-01T11:25:37.032Z,3.25
2023-04-01T11:28:43.726Z,2.92
2023-04-01T11:31:27.008Z,3.80
2023-04-01T11:36:37.488Z,4.00
2023-04-01T11:39:17.014Z,3.88
2023-04-01T11:42:12.054Z,3.85
2023-04-01T11:45:31.968Z,3.78
2023-04-01T11:47:58.725Z,4.40
2023-04-01T11:50:50.670Z,3.65
2023-04-01T11:56:07.602Z,3.47
2023-04-01T11:59:05.552Z,3.25
2023-04-01T12:01:43.970Z,3.90
2023-04-01T12:04:27.791Z,4.63
2023-04-01T12:07:04.882Z,4.97
2023-04-01T12:09:53.498Z,6.43
2023-04-01T12:12:54.155Z,6.43
2023-04-01T12:15:35.989Z,5.78
2023-04-01T12:18:27.295Z,5.55
2023-04-01T12:21:11.844Z,5.35
2023-04-01T12:24:05.185Z,4.80
2023-04-01T12:27:03.237Z,6.28
2023-04-01T12:29:29.645Z,5.05
2023-04-01T12:32:26.244Z,5.47
2023-04-01T12:35:04.998Z,4.63
2023-04-01T12:37:48.337Z,4.60
2023-04-01T12:40:21.655Z,4.53
2023-04-01T12:43:09.912Z,4.00
2023-04-01T12:45:45.857Z,2.65
2023-04-01T12:48:15.258Z,2.10
2023-04-01T12:50:41.669Z,2.10
2023-04-01T12:53:51.996Z,2.35
2023-04-01T12:56:30.521Z,2.38
2023-04-01T12:59:19.796Z,3.30
2023-04-01T13:01:56.289Z,4.05
2023-04-01T13:04:31.568Z,3.78
2023-04-01T13:07:24.365Z,3.75
2023-04-01T13:10:26.220Z,4.57
2023-04-01T13:15:55.626Z,4.70
2023-04-01T13:18:31.009Z,3.53
2023-04-01T13:21:00.553Z,3.30
2023-04-01T13:23:37.665Z,2.90
2023-04-01T13:26:33.207Z,2.85
2023-04-01T13:28:59.612Z,3.67
2023-04-01T13:31:34.917Z,3.50
2023-04-01T13:34:17.368Z,3.50
2023-04-01T13:36:57.277Z,3.45
2023-04-01T13:39:35.961Z,3.15
2023-04-01T13:42:13.960Z,3.25
2023-04-01T13:44:58.293Z,3.92
2023-04-01T13:47:50.756Z,3.72
2023-04-01T13:50:49.180Z,4.30
2023-04-01T13:53:43.370Z,3.35
2023-04-01T13:56:21.924Z,3.63
2023-04-01T13:58:57.174Z,3.10
2023-04-01T14:01:31.793Z,2.75
2023-04-01T14:04:23.636Z,3.00
2023-04-01T14:07:16.756Z,3.28
2023-04-01T14:09:46.407Z,2.88
2023-04-01T14:13:04.192Z,3.17
2023-04-01T14:15:57.797Z,3.30
2023-04-01T14:19:01.889Z,3.92
2023-04-01T14:21:39.192Z,4.10
2023-04-01T14:24:14.830Z,3.50
2023-04-01T14:27:02.490Z,3.20
2023-04-01T14:29:57.711Z,3.13
2023-04-01T14:32:47.185Z,3.28
2023-04-01T14:35:25.211Z,3.72
2023-04-01T14:38:20.914Z,3.00
2023-04-01T14:40:56.142Z,3.20
2023-04-01T14:43:53.981Z,3.20
2023-04-01T14:46:47.133Z,3.35
2023-04-01T14:49:31.830Z,3.72
2023-04-01T14:52:06.809Z,3.13
2023-04-01T14:54:41.239Z,2.90
2023-04-01T14:57:12.506Z,3.10
2023-04-01T14:59:59.267Z,3.53
2023-04-01T15:02:43.699Z,3.50
2023-04-01T15:05:42.202Z,4.20
2023-04-01T15:08:30.162Z,4.10
2023-04-01T15:11:24.499Z,4.18
2023-04-01T15:14:02.738Z,4.82
2023-04-01T15:16:50.688Z,4.72
2023-04-01T15:19:39.796Z,4.03
2023-04-01T15:22:28.275Z,4.85
2023-04-01T15:25:18.675Z,3.10
2023-04-01T15:28:21.954Z,3.22
2023-04-01T15:31:10.718Z,3.00
2023-04-01T15:33:53.428Z,2.90
2023-04-01T15:36:23.026Z,2.80
2023-04-01T15:38:54.523Z,2.75
2023-04-01T15:41:39.813Z,1.88
2023-04-01T15:44:28.932Z,2.40
2023-04-01T15:46:57.951Z,2.17
2023-04-01T15:49:44.483Z,2.38
2023-04-01T15:52:35.758Z,2.10
2023-04-01T15:55:14.778Z,3.20
2023-04-01T15:58:36.646Z,3.33
2023-04-01T16:01:09.397Z,3.30
2023-04-01T16:03:44.250Z,2.25
2023-04-01T16:06:25.596Z,2.55
2023-04-01T16:09:12.662Z,1.77
2023-04-01T16:12:01.465Z,1.90
2023-04-01T16:14:27.970Z,1.65
2023-04-01T16:17:06.757Z,1.50
2023-04-01T16:19:52.012Z,2.25
2023-04-01T16:22:54.501Z,1.77
2023-04-01T16:25:32.027Z,1.60
2023-04-01T16:28:17.390Z,1.33
2023-04-01T16:30:49.378Z,2.00
2023-04-01T16:33:36.981Z,2.00
2023-04-01T16:36:06.475Z,1.17
2023-04-01T16:39:02.318Z,1.20
2023-04-01T16:41:39.684Z,1.80
2023-04-01T16:44:18.352Z,1.95
2023-04-01T16:46:54.707Z,1.90
2023-04-01T16:49:30.374Z,2.08
2023-04-01T16:52:11.850Z,2.40
2023-04-01T16:55:16.402Z,2.67
2023-04-01T16:58:02.060Z,2.95
2023-04-01T17:00:31.962Z,2.67
2023-04-01T17:03:07.797Z,2.90
2023-04-01T17:06:00.256Z,3.05
2023-04-01T17:08:36.573Z,2.80
2023-04-01T17:11:37.308Z,3.28
2023-04-01T17:14:39.761Z,2.80
2023-04-01T17:17:33.852Z,3.28
2023-04-01T17:20:26.888Z,3.22
2023-04-01T17:22:59.707Z,2.97
2023-04-01T17:25:42.339Z,2.28
2023-04-01T17:28:33.294Z,2.80
2023-04-01T17:31:05.748Z,2.17
2023-04-01T17:33:47.175Z,1.95
2023-04-01T17:36:42.674Z,2.15
2023-04-01T17:39:18.023Z,3.50
2023-04-01T17:42:05.689Z,2.15
2023-04-01T17:44:38.095Z,2.20
2023-04-01T17:47:40.667Z,2.63
2023-04-01T17:50:22.164Z,2.38
2023-04-01T17:53:05.114Z,2.20
2023-04-01T17:55:50.421Z,2.72
2023-04-01T17:58:22.912Z,1.88
2023-04-01T18:01:14.393Z,4.60
2023-04-01T18:03:43.932Z,2.63
2023-04-01T18:06:30.546Z,2.75
2023-04-01T18:09:10.742Z,2.60
2023-04-01T18:11:52.226Z,2.67
2023-04-01T18:14:21.492Z,3.22
2023-04-01T18:17:04.987Z,2.95
2023-04-01T18:19:49.627Z,3.22
2023-04-01T18:22:34.396Z,3.00
2023-04-01T18:25:31.870Z,2.47
2023-04-01T18:28:37.015Z,2.78
2023-04-01T18:31:03.496Z,3.13
2023-04-01T18:33:45.470Z,3.20
2023-04-01T18:36:23.953Z,1.63
2023-04-01T18:38:55.799Z,4.07
2023-04-01T18:41:40.748Z,2.30
2023-04-01T18:44:19.448Z,1.45
2023-04-01T18:47:03.951Z,1.77
2023-04-01T18:49:42.292Z,1.60
2023-04-01T18:52:19.197Z,2.20
2023-04-01T18:55:03.837Z,2.90
2023-04-01T18:57:55.219Z,2.33
2023-04-01T19:00:26.703Z,2.40
2023-04-01T19:03:09.822Z,1.70
2023-04-01T19:05:40.540Z,1.98
2023-04-01T19:08:31.632Z,5.25
2023-04-01T19:11:22.921Z,2.08
2023-04-01T19:14:01.502Z,1.60
2023-04-01T19:16:53.485Z,1.42
2023-04-01T19:19:27.862Z,1.50
2023-04-01T19:21:59.141Z,1.38
2023-04-01T19:24:50.349Z,1.40
2023-04-01T19:27:36.334Z,1.50
2023-04-01T19:30:02.768Z,1.38
2023-04-01T19:32:50.831Z,1.38
2023-04-01T19:35:35.322Z,1.48
2023-04-01T19:38:12.910Z,2.10
2023-04-01T19:40:51.966Z,1.80
2023-04-01T19:43:30.304Z,1.20
2023-04-01T19:46:28.096Z,1.00
2023-04-01T19:49:33.552Z,2.50
2023-04-01T19:52:06.045Z,1.40
2023-04-01T19:54:48.328Z,1.10
2023-04-01T19:57:36.038Z,1.45
2023-04-01T20:00:26.430Z,1.50
2023-04-01T20:03:02.183Z,1.88
2023-04-01T20:05:59.928Z,1.70
2023-04-01T20:08:32.858Z,2.40
2023-04-01T20:11:22.535Z,2.28
2023-04-01T20:13:49.245Z,2.00
2023-04-01T20:16:16.503Z,2.97
2023-04-01T20:18:49.898Z,2.22
2023-04-01T20:21:25.374Z,2.65
2023-04-01T20:24:15.536Z,2.30
2023-04-01T20:26:48.754Z,2.60
2023-04-01T20:29:32.303Z,2.20
2023-04-01T20:32:04.712Z,2.15
2023-04-01T20:34:34.062Z,1.88
2023-04-01T20:37:16.207Z,1.90
2023-04-01T20:40:01.595Z,2.03
2023-04-01T20:42:46.309Z,2.17
2023-04-01T20:45:36.244Z,1.38
2023-04-01T20:48:21.958Z,1.73
2023-04-01T20:51:08.911Z,1.98
2023-04-01T20:53:52.055Z,2.55
2023-04-01T20:56:43.000Z,2.67
2023-04-01T20:59:36.764Z,3.40
2023-04-01T21:02:12.193Z,2.20
2023-04-01T21:04:56.901Z,1.67
2023-04-01T21:07:34.837Z,2.50
2023-04-01T21:10:34.075Z,2.20
2023-04-01T21:13:18.767Z,3.58
2023-04-01T21:16:04.383Z,3.85
2023-04-01T21:18:53.871Z,3.42
2023-04-01T21:21:42.190Z,3.03
2023-04-01T21:24:14.405Z,2.72
2023-04-01T21:26:56.017Z,2.75
2023-04-01T21:29:48.438Z,2.05
2023-04-01T21:32:39.719Z,1.38
2023-04-01T21:35:35.084Z,1.88
2023-04-01T21:38:29.683Z,1.70
2023-04-01T21:41:17.400Z,2.22
2023-04-01T21:44:58.806Z,2.25
2023-04-01T21:47:46.181Z,2.58
2023-04-01T21:50:44.898Z,3.22
2023-04-01T21:53:17.172Z,2.53
2023-04-01T21:55:52.497Z,3.55
2023-04-01T21:58:40.645Z,3.00
2023-04-01T22:01:19.199Z,3.30
2023-04-01T22:03:57.752Z,2.90
2023-04-01T22:06:38.967Z,2.63
2023-04-01T22:09:32.429Z,3.53
2023-04-01T22:12:10.712Z,3.28
2023-04-01T22:15:18.497Z,4.35
2023-04-01T22:18:14.466Z,2.80
2023-04-01T22:20:56.834Z,3.35
2023-04-01T22:23:33.567Z,3.22
2023-04-01T22:26:09.394Z,2.30
2023-04-01T22:28:43.437Z,3.55
2023-04-01T22:31:15.477Z,3.00
2023-04-01T22:33:48.083Z,2.90
2023-04-01T22:36:29.914Z,2.90
2023-04-01T22:39:02.660Z,3.13
2023-04-01T22:42:30.638Z,3.67
2023-04-01T22:45:02.207Z,3.03
2023-04-01T22:50:04.645Z,3.90
2023-04-01T22:52:40.803Z,3.63
2023-04-01T22:55:39.098Z,3.50
2023-04-01T22:58:26.330Z,4.25
2023-04-01T23:00:59.420Z,3.45
2023-04-01T23:03:33.653Z,4.35
2023-04-01T23:06:02.699Z,3.72
2023-04-01T23:09:05.804Z,3.40
2023-04-01T23:11:50.205Z,4.03
2023-04-01T23:14:22.427Z,3.70
2023-04-01T23:16:52.883Z,3.83
2023-04-01T23:19:23.206Z,4.55
2023-04-01T23:22:13.053Z,4.53
2023-04-01T23:24:50.211Z,4.32
2023-04-01T23:27:26.312Z,4.13
2023-04-01T23:29:53.032Z,4.97
2023-04-01T23:32:23.081Z,4.70
2023-04-01T23:34:52.296Z,3.88
2023-04-01T23:37:20.078Z,4.32
2023-04-01T23:39:51.897Z,4.32
2023-04-01T23:42:27.179Z,5.00
2023-04-01T23:44:58.670Z,4.85
2023-04-01T23:47:30.028Z,5.60
2023-04-01T23:50:04.720Z,5.68
2023-04-01T23:52:36.810Z,5.00
2023-04-01T23:55:22.600Z,6.22
2023-04-01T23:58:08.499Z,5.70
